Time;durP1;ratioP1;P1;durP2;ratioP2;P2;SDS_P1;SDS_P2;PMS_P1;PMS_P2;Temp;Humidity;BMP_temperature;BMP_pressure;BME280_temperature;BME280_humidity;BME280_pressure;Samples;Min_cycle;Max_cycle;Signal;HPM_P1;HPM_P2
2022/07/14 00:01:37;;;;;;;3.10;2.47;;;14.50;94.40;;;;;;5074791;28;20170;-69
2022/07/14 00:04:04;;;;;;;7.23;2.00;;;14.40;97.30;;;;;;5072803;28;20198;-71
2022/07/14 00:06:30;;;;;;;3.80;2.10;;;14.40;98.20;;;;;;5078114;28;20432;-76
2022/07/14 00:08:55;;;;;;;5.57;1.90;;;14.40;99.10;;;;;;5072925;28;20435;-77
2022/07/14 00:11:21;;;;;;;5.77;2.47;;;14.30;99.90;;;;;;5078015;28;20239;-69
2022/07/14 00:13:47;;;;;;;3.97;1.53;;;14.30;99.90;;;;;;5072340;28;20550;-76
2022/07/14 00:16:12;;;;;;;13.13;2.03;;;14.30;99.90;;;;;;5084463;28;20209;-68
2022/07/14 00:18:43;;;;;;;4.10;2.20;;;14.30;99.90;;;;;;5074969;28;20536;-68
2022/07/14 00:21:13;;;;;;;2.73;2.20;;;14.30;99.90;;;;;;5073189;28;20253;-68
2022/07/14 00:23:39;;;;;;;2.70;2.00;;;14.20;99.90;;;;;;5074071;28;20439;-68
2022/07/14 00:26:05;;;;;;;10.03;2.03;;;14.20;99.90;;;;;;5073401;28;20410;-73
2022/07/14 00:28:30;;;;;;;5.60;1.57;;;14.20;99.90;;;;;;5075343;28;20485;-68
2022/07/14 00:30:57;;;;;;;9.93;2.23;;;14.10;99.90;;;;;;5073592;28;20436;-77
2022/07/14 00:33:23;;;;;;;3.10;1.83;;;14.20;99.90;;;;;;5066344;28;20185;-75
2022/07/14 00:35:49;;;;;;;7.33;2.50;;;14.20;99.90;;;;;;5077779;28;20460;-68
2022/07/14 00:38:14;;;;;;;6.00;1.87;;;14.10;99.90;;;;;;5083582;28;20223;-77
2022/07/14 00:40:40;;;;;;;6.87;1.80;;;14.10;99.90;;;;;;5074237;28;20173;-68
2022/07/14 00:43:06;;;;;;;5.60;2.20;;;14.00;99.90;;;;;;5073213;28;20807;-75
2022/07/14 00:45:32;;;;;;;3.33;1.67;;;14.00;99.90;;;;;;5080884;28;20205;-69
2022/07/14 00:47:57;;;;;;;6.37;1.80;;;14.00;99.90;;;;;;5087989;28;20204;-77
2022/07/14 00:50:23;;;;;;;3.10;1.90;;;13.90;99.90;;;;;;5073134;28;20263;-76
2022/07/14 00:52:50;;;;;;;5.93;1.80;;;13.90;99.90;;;;;;5072208;28;20181;-77
2022/07/14 00:55:16;;;;;;;2.83;1.83;;;13.80;99.90;;;;;;5072854;28;20733;-68
2022/07/14 00:57:42;;;;;;;2.30;1.87;;;13.80;99.90;;;;;;5084932;28;20442;-67
2022/07/14 01:00:11;;;;;;;8.53;2.20;;;13.80;99.90;;;;;;5086943;28;20420;-68
2022/07/14 01:02:37;;;;;;;8.80;1.73;;;13.80;99.90;;;;;;5073750;28;20394;-77
2022/07/14 01:05:05;;;;;;;4.77;2.07;;;13.80;99.90;;;;;;5083816;28;20885;-68
2022/07/14 01:07:31;;;;;;;4.93;1.70;;;13.80;99.90;;;;;;5084093;28;20446;-68
2022/07/14 01:09:57;;;;;;;4.23;2.00;;;13.70;99.90;;;;;;5087687;28;20444;-68
2022/07/14 01:12:23;;;;;;;6.23;2.20;;;13.80;99.90;;;;;;5089540;28;20542;-75
2022/07/14 01:14:49;;;;;;;2.10;1.90;;;13.70;99.90;;;;;;5086034;28;20463;-77
2022/07/14 01:17:15;;;;;;;3.63;1.63;;;13.70;99.90;;;;;;5083182;28;20823;-73
2022/07/14 01:19:41;;;;;;;3.93;1.83;;;13.70;99.90;;;;;;5071417;28;20174;-77
2022/07/14 01:22:06;;;;;;;2.87;2.33;;;13.70;99.90;;;;;;5071059;28;20206;-76
2022/07/14 01:24:33;;;;;;;4.53;1.77;;;13.70;99.90;;;;;;5082678;28;20523;-72
2022/07/14 01:26:59;;;;;;;4.03;2.53;;;13.70;99.90;;;;;;5091562;28;20896;-68
2022/07/14 01:29:25;;;;;;;7.00;2.30;;;13.60;99.90;;;;;;5090379;28;20404;-76
2022/07/14 01:31:52;;;;;;;5.80;2.17;;;13.60;99.90;;;;;;5084388;28;20598;-77
2022/07/14 01:34:17;;;;;;;4.67;1.90;;;13.60;99.90;;;;;;5074755;28;20444;-69
2022/07/14 01:36:44;;;;;;;5.80;1.63;;;13.60;99.90;;;;;;5076482;28;20510;-76
2022/07/14 01:39:10;;;;;;;3.73;2.13;;;13.50;99.90;;;;;;5078507;28;20260;-77
2022/07/14 01:41:36;;;;;;;5.47;1.70;;;13.50;99.90;;;;;;5093466;28;20366;-68
2022/07/14 01:44:03;;;;;;;3.70;2.10;;;13.40;99.90;;;;;;5086794;28;20490;-68
2022/07/14 01:46:28;;;;;;;5.50;1.67;;;13.40;99.90;;;;;;5085783;28;20910;-76
2022/07/14 01:48:54;;;;;;;5.83;2.40;;;13.40;99.90;;;;;;5074769;28;20423;-77
2022/07/14 01:51:20;;;;;;;2.67;1.80;;;13.40;99.90;;;;;;5084809;28;20182;-67
2022/07/14 01:53:47;;;;;;;6.87;3.40;;;13.30;99.90;;;;;;5078199;28;20784;-77
2022/07/14 01:56:12;;;;;;;5.03;3.23;;;13.30;99.90;;;;;;5076820;28;20478;-75
2022/07/14 01:58:38;;;;;;;6.20;3.80;;;13.30;99.90;;;;;;5072343;28;20424;-76
2022/07/14 02:03:54;;;;;;;8.80;3.57;;;13.30;99.90;;;;;;5076781;28;20205;-68
2022/07/14 02:06:19;;;;;;;7.47;2.80;;;13.30;99.90;;;;;;5093158;28;20400;-67
2022/07/14 02:08:45;;;;;;;9.53;2.83;;;13.20;99.90;;;;;;5082527;28;20206;-76
2022/07/14 02:13:55;;;;;;;4.83;2.60;;;13.10;99.90;;;;;;5076173;28;20204;-77
2022/07/14 02:16:20;;;;;;;5.63;3.00;;;13.10;99.90;;;;;;5090886;28;20455;-68
2022/07/14 02:18:46;;;;;;;4.53;2.20;;;13.00;99.90;;;;;;5078839;28;20212;-76
2022/07/14 02:21:12;;;;;;;6.60;4.43;;;13.00;99.90;;;;;;5071984;28;20174;-69
2022/07/14 02:23:37;;;;;;;5.93;2.30;;;13.00;99.90;;;;;;5074233;28;20205;-70
2022/07/14 02:26:03;;;;;;;5.53;2.90;;;12.90;99.90;;;;;;5088023;28;20180;-68
2022/07/14 02:28:29;;;;;;;8.03;2.30;;;12.90;99.90;;;;;;5077576;28;20189;-68
2022/07/14 02:30:54;;;;;;;3.20;2.00;;;12.90;99.90;;;;;;5085465;28;20212;-73
2022/07/14 02:33:20;;;;;;;3.53;2.20;;;12.80;99.90;;;;;;5082506;28;20208;-76
2022/07/14 02:35:46;;;;;;;3.17;2.23;;;12.80;99.90;;;;;;5084729;28;20248;-67
2022/07/14 02:38:11;;;;;;;2.67;1.93;;;12.70;99.90;;;;;;5081662;28;20220;-68
2022/07/14 02:40:37;;;;;;;4.67;2.20;;;12.70;99.90;;;;;;5081110;28;20174;-67
2022/07/14 02:43:03;;;;;;;3.83;1.97;;;12.70;99.90;;;;;;5081656;28;20174;-68
2022/07/14 02:45:29;;;;;;;3.50;2.43;;;12.70;99.90;;;;;;5086337;28;20198;-68
2022/07/14 02:47:54;;;;;;;5.20;2.13;;;12.70;99.90;;;;;;5072659;28;20177;-77
2022/07/14 02:50:20;;;;;;;5.20;2.20;;;12.60;99.90;;;;;;5072025;28;20617;-67
2022/07/14 02:52:45;;;;;;;4.40;2.10;;;12.60;99.90;;;;;;5075410;28;20185;-75
2022/07/14 02:55:11;;;;;;;8.73;2.80;;;12.70;99.90;;;;;;5083505;28;20213;-72
2022/07/14 02:57:37;;;;;;;3.33;2.40;;;12.70;99.90;;;;;;5088669;28;20291;-68
2022/07/14 03:00:04;;;;;;;4.47;2.23;;;12.70;99.90;;;;;;5080413;28;20426;-70
2022/07/14 03:02:30;;;;;;;4.40;2.37;;;12.70;99.90;;;;;;5073288;28;20232;-68
2022/07/14 03:04:56;;;;;;;5.00;2.30;;;12.70;99.90;;;;;;5076908;28;20534;-75
2022/07/14 03:07:21;;;;;;;2.40;2.20;;;12.70;99.90;;;;;;5090469;28;20165;-74
2022/07/14 03:09:47;;;;;;;6.07;1.77;;;12.70;99.90;;;;;;5075363;28;20649;-67
2022/07/14 03:12:13;;;;;;;2.70;1.83;;;12.70;99.90;;;;;;5071321;28;20181;-73
2022/07/14 03:14:39;;;;;;;4.70;2.57;;;12.70;99.90;;;;;;5076768;28;20284;-77
2022/07/14 03:17:04;;;;;;;3.20;2.13;;;12.70;99.90;;;;;;5089731;28;20178;-69
2022/07/14 03:19:30;;;;;;;7.20;2.10;;;12.70;99.90;;;;;;5074926;28;20182;-68
2022/07/14 03:21:55;;;;;;;3.33;1.97;;;12.70;99.90;;;;;;5074438;28;20167;-77
2022/07/14 03:24:21;;;;;;;5.43;2.60;;;12.70;99.90;;;;;;5072912;28;20202;-68
2022/07/14 03:26:47;;;;;;;4.00;2.00;;;12.70;99.90;;;;;;5075069;28;20174;-76
2022/07/14 03:29:13;;;;;;;3.63;1.70;;;12.70;99.90;;;;;;5093955;28;20213;-67
2022/07/14 03:31:39;;;;;;;2.17;1.40;;;12.70;99.90;;;;;;5088476;28;20521;-77
2022/07/14 03:34:05;;;;;;;1.80;1.60;;;12.70;99.90;;;;;;5072548;28;20893;-68
2022/07/14 03:36:31;;;;;;;4.83;1.80;;;12.60;99.90;;;;;;5081028;28;20232;-67
2022/07/14 03:38:57;;;;;;;2.90;1.83;;;12.60;99.90;;;;;;5085878;28;20422;-76
2022/07/14 03:41:23;;;;;;;1.90;1.60;;;12.60;99.90;;;;;;5090927;28;20665;-77
2022/07/14 03:43:48;;;;;;;4.23;2.07;;;12.50;99.90;;;;;;5072240;28;20427;-76
2022/07/14 03:46:14;;;;;;;3.37;2.30;;;12.60;99.90;;;;;;5088559;28;20192;-77
2022/07/14 03:48:40;;;;;;;3.40;2.50;;;12.60;99.90;;;;;;5088174;28;20515;-67
2022/07/14 03:51:07;;;;;;;3.57;1.90;;;12.60;99.90;;;;;;5082109;28;20754;-70
2022/07/14 03:53:34;;;;;;;1.83;1.73;;;12.70;99.90;;;;;;5085108;28;20289;-77
2022/07/14 03:56:00;;;;;;;5.63;1.60;;;12.70;99.90;;;;;;5077327;28;20960;-76
2022/07/14 03:58:26;;;;;;;4.30;2.10;;;12.70;99.90;;;;;;5075810;28;20428;-70
2022/07/14 04:00:52;;;;;;;4.03;2.00;;;12.70;99.90;;;;;;5085666;28;20419;-68
2022/07/14 04:03:18;;;;;;;2.23;2.03;;;12.80;99.90;;;;;;5076523;28;20417;-68
2022/07/14 04:05:45;;;;;;;4.10;1.60;;;12.80;99.90;;;;;;5088382;28;20196;-76
2022/07/14 04:08:11;;;;;;;2.57;1.53;;;12.90;99.90;;;;;;5089844;28;20402;-76
2022/07/14 04:10:37;;;;;;;2.13;1.73;;;12.90;99.90;;;;;;5093467;28;20446;-76
2022/07/14 04:13:03;;;;;;;5.80;1.90;;;12.90;99.90;;;;;;5073719;28;20209;-68
2022/07/14 04:15:30;;;;;;;2.43;2.10;;;12.90;99.90;;;;;;5081381;28;20193;-76
2022/07/14 04:17:57;;;;;;;2.07;1.30;;;12.80;99.90;;;;;;5081343;28;20506;-75
2022/07/14 04:20:23;;;;;;;3.03;2.43;;;12.80;99.90;;;;;;5076561;28;20452;-68
2022/07/14 04:22:48;;;;;;;1.97;1.50;;;12.80;99.90;;;;;;5086846;28;20436;-77
2022/07/14 04:25:14;;;;;;;6.33;1.80;;;12.80;99.90;;;;;;5091118;28;20505;-76
2022/07/14 04:27:41;;;;;;;3.73;1.90;;;12.90;99.90;;;;;;5093716;28;20182;-68
2022/07/14 04:30:09;;;;;;;9.60;2.00;;;12.90;99.90;;;;;;5075684;28;20403;-76
2022/07/14 04:32:34;;;;;;;2.00;1.90;;;12.90;99.90;;;;;;5075044;28;20432;-77
2022/07/14 04:35:00;;;;;;;2.60;1.90;;;12.90;99.90;;;;;;5080313;28;20459;-68
2022/07/14 04:37:26;;;;;;;3.10;1.97;;;12.90;99.90;;;;;;5074570;28;20249;-69
2022/07/14 04:39:54;;;;;;;4.20;2.07;;;13.00;99.90;;;;;;5073430;28;20178;-77
2022/07/14 04:42:21;;;;;;;2.00;1.90;;;13.00;99.90;;;;;;5077100;28;21194;-67
2022/07/14 04:44:46;;;;;;;4.40;2.33;;;13.00;99.90;;;;;;5083138;28;20949;-68
2022/07/14 04:47:12;;;;;;;7.20;1.97;;;12.90;99.90;;;;;;5094495;28;20453;-77
2022/07/14 04:52:22;;;;;;;5.90;2.00;;;13.00;99.90;;;;;;5078642;28;20184;-76
2022/07/14 04:54:48;;;;;;;2.60;1.87;;;12.90;99.90;;;;;;5079597;28;20464;-76
2022/07/14 04:57:13;;;;;;;6.87;1.97;;;12.90;99.90;;;;;;5071833;28;20202;-68
2022/07/14 04:59:39;;;;;;;4.43;1.97;;;13.00;99.90;;;;;;5075140;28;20170;-68
2022/07/14 05:02:05;;;;;;;2.53;1.90;;;12.90;99.90;;;;;;5077298;28;20174;-68
2022/07/14 05:04:31;;;;;;;3.20;2.10;;;12.90;99.90;;;;;;5081175;28;21014;-68
2022/07/14 05:06:57;;;;;;;2.30;1.50;;;12.90;99.90;;;;;;5086146;28;20178;-67
2022/07/14 05:09:26;;;;;;;4.27;2.40;;;12.90;99.90;;;;;;5076231;28;20201;-76
2022/07/14 05:11:54;;;;;;;3.57;2.80;;;12.90;99.90;;;;;;5073767;28;20236;-74
2022/07/14 05:14:20;;;;;;;1.53;1.40;;;13.00;99.90;;;;;;5071579;28;20451;-68
2022/07/14 05:16:48;;;;;;;7.37;2.20;;;13.10;99.90;;;;;;5075488;28;20422;-74
2022/07/14 05:19:15;;;;;;;2.07;1.70;;;13.20;99.90;;;;;;5082227;28;20227;-68
2022/07/14 05:21:41;;;;;;;3.60;1.90;;;13.30;99.90;;;;;;5074871;28;20486;-68
2022/07/14 05:24:07;;;;;;;5.17;1.20;;;13.40;99.90;;;;;;5092800;28;20510;-68
2022/07/14 05:26:32;;;;;;;1.40;1.20;;;13.40;99.90;;;;;;5090829;28;20169;-68
2022/07/14 05:28:58;;;;;;;1.70;1.60;;;13.60;99.90;;;;;;5088890;28;20183;-77
2022/07/14 05:31:24;;;;;;;3.73;1.50;;;13.70;99.90;;;;;;5093640;28;20174;-73
2022/07/14 05:33:50;;;;;;;2.73;1.30;;;13.80;99.90;;;;;;5082254;28;20229;-69
2022/07/14 05:36:16;;;;;;;4.83;1.80;;;14.00;99.90;;;;;;5093141;28;20451;-68
2022/07/14 05:38:41;;;;;;;3.20;1.80;;;14.10;99.90;;;;;;5073928;28;20200;-71
2022/07/14 05:41:07;;;;;;;7.23;2.10;;;14.20;99.90;;;;;;5076299;28;20204;-72
2022/07/14 05:43:33;;;;;;;2.77;1.40;;;14.40;99.90;;;;;;5090305;28;20458;-72
2022/07/14 05:46:09;;;;;;;7.60;1.93;;;14.50;99.90;;;;;;5088961;28;20177;-71
2022/07/14 05:48:37;;;;;;;3.33;1.77;;;14.50;99.90;;;;;;5087538;28;20170;-72
2022/07/14 05:51:10;;;;;;;2.03;1.20;;;14.60;99.90;;;;;;5074726;28;20932;-71
2022/07/14 05:53:36;;;;;;;7.03;1.83;;;14.70;99.90;;;;;;5074537;28;20794;-70
2022/07/14 05:56:03;;;;;;;3.43;1.40;;;14.80;99.90;;;;;;5090800;28;20458;-71
2022/07/14 05:58:29;;;;;;;5.10;1.47;;;14.90;99.90;;;;;;5080331;28;20424;-71
2022/07/14 06:00:55;;;;;;;2.43;1.47;;;15.00;99.90;;;;;;5072944;28;20408;-69
2022/07/14 06:03:21;;;;;;;2.97;1.23;;;15.20;99.90;;;;;;5083281;28;20767;-70
2022/07/14 06:05:46;;;;;;;3.13;1.33;;;15.30;99.90;;;;;;5091822;28;20410;-72
2022/07/14 06:08:12;;;;;;;4.77;1.20;;;15.30;99.90;;;;;;5081684;28;20242;-71
2022/07/14 06:10:38;;;;;;;4.43;1.60;;;15.40;99.90;;;;;;5081539;28;20209;-71
2022/07/14 06:13:04;;;;;;;1.90;1.10;;;15.50;99.90;;;;;;5072061;28;20760;-71
2022/07/14 06:15:30;;;;;;;3.70;1.73;;;15.60;99.90;;;;;;5091644;28;20569;-70
2022/07/14 06:17:56;;;;;;;2.70;1.10;;;15.60;99.90;;;;;;5087432;28;20420;-71
2022/07/14 06:20:22;;;;;;;1.50;1.10;;;15.70;99.90;;;;;;5091319;28;20193;-72
2022/07/14 06:22:49;;;;;;;6.50;1.30;;;15.70;99.90;;;;;;5071892;28;20177;-72
2022/07/14 06:25:15;;;;;;;2.70;0.97;;;15.70;99.90;;;;;;5083043;28;20436;-72
2022/07/14 06:27:41;;;;;;;1.27;0.93;;;15.80;99.90;;;;;;5091233;28;20435;-73
2022/07/14 06:30:08;;;;;;;5.67;1.80;;;15.80;99.90;;;;;;5087779;28;20477;-71
2022/07/14 06:32:39;;;;;;;4.60;1.57;;;15.80;99.90;;;;;;5081076;28;20639;-76
2022/07/14 06:35:08;;;;;;;1.83;1.10;;;15.80;99.90;;;;;;5072355;28;20463;-76
2022/07/14 06:37:36;;;;;;;6.50;1.07;;;15.90;99.90;;;;;;5079012;28;20429;-71
2022/07/14 06:40:05;;;;;;;1.57;0.87;;;16.00;99.90;;;;;;5087939;28;20426;-67
2022/07/14 06:42:32;;;;;;;1.17;1.07;;;16.00;99.90;;;;;;5078419;28;20986;-77
2022/07/14 06:44:58;;;;;;;1.90;1.20;;;16.10;99.90;;;;;;5072513;28;20427;-68
2022/07/14 06:47:24;;;;;;;1.00;0.80;;;16.20;99.90;;;;;;5082784;28;20784;-78
2022/07/14 06:49:49;;;;;;;1.47;0.90;;;16.30;99.90;;;;;;5096752;28;20404;-68
2022/07/14 06:52:15;;;;;;;1.00;0.80;;;16.40;99.90;;;;;;5085023;28;20669;-76
2022/07/14 06:54:41;;;;;;;3.17;1.00;;;16.50;99.90;;;;;;5076293;28;20201;-70
2022/07/14 06:57:07;;;;;;;1.63;1.13;;;16.50;99.90;;;;;;5076141;28;20201;-72
2022/07/14 06:59:32;;;;;;;1.30;1.13;;;16.40;99.90;;;;;;5094307;28;20181;-70
2022/07/14 07:01:58;;;;;;;3.63;1.20;;;16.40;99.90;;;;;;5090326;28;20296;-77
2022/07/14 07:04:24;;;;;;;1.20;1.07;;;16.50;99.90;;;;;;5075377;28;20678;-77
2022/07/14 07:06:50;;;;;;;3.47;1.13;;;16.50;99.90;;;;;;5078549;28;20242;-68
2022/07/14 07:09:19;;;;;;;1.50;0.90;;;16.60;99.90;;;;;;5094974;28;20182;-76
2022/07/14 07:11:45;;;;;;;5.50;1.03;;;16.70;99.90;;;;;;5093658;28;20396;-68
2022/07/14 07:14:11;;;;;;;2.83;1.50;;;16.80;99.90;;;;;;5074964;28;20773;-69
2022/07/14 07:16:37;;;;;;;3.23;1.33;;;16.80;99.90;;;;;;5074536;28;20460;-76
2022/07/14 07:19:04;;;;;;;3.43;1.13;;;16.80;99.90;;;;;;5089670;28;20431;-76
2022/07/14 07:21:30;;;;;;;1.57;1.00;;;16.90;99.90;;;;;;5096064;28;20666;-68
2022/07/14 07:23:55;;;;;;;1.83;1.00;;;17.00;99.90;;;;;;5094951;28;20423;-67
2022/07/14 07:26:24;;;;;;;1.83;1.00;;;16.90;99.50;;;;;;5096014;28;20403;-68
2022/07/14 07:28:52;;;;;;;2.97;0.90;;;16.90;99.90;;;;;;5094342;28;20223;-76
2022/07/14 07:31:18;;;;;;;5.47;1.47;;;17.00;99.80;;;;;;5096017;28;20400;-68
2022/07/14 07:33:45;;;;;;;1.33;0.70;;;17.20;94.80;;;;;;5094836;28;20420;-68
2022/07/14 07:36:12;;;;;;;1.17;0.87;;;17.30;94.70;;;;;;5094602;28;20463;-71
2022/07/14 07:38:37;;;;;;;1.57;0.87;;;17.50;94.80;;;;;;5095802;28;20922;-68
2022/07/14 07:41:03;;;;;;;2.33;1.60;;;17.50;94.80;;;;;;5094432;28;20408;-68
2022/07/14 07:43:29;;;;;;;1.77;0.80;;;17.60;94.80;;;;;;5094735;28;20162;-68
2022/07/14 07:45:55;;;;;;;2.40;0.80;;;17.70;94.90;;;;;;5093796;28;20204;-77
2022/07/14 07:48:21;;;;;;;5.23;1.17;;;17.70;94.80;;;;;;5095355;28;20435;-72
2022/07/14 07:50:47;;;;;;;4.57;1.47;;;17.80;94.90;;;;;;5095680;28;20645;-71
2022/07/14 07:53:14;;;;;;;2.30;1.57;;;17.80;86.30;;;;;;5094544;28;20400;-70
2022/07/14 07:55:40;;;;;;;0.93;0.83;;;17.60;71.40;;;;;;5093650;28;20966;-74
2022/07/14 07:58:07;;;;;;;1.10;0.83;;;17.50;64.90;;;;;;5094402;28;20488;-76
2022/07/14 08:00:33;;;;;;;1.73;1.20;;;17.50;61.80;;;;;;5095358;28;20387;-76
2022/07/14 08:03:01;;;;;;;1.37;1.00;;;17.50;61.00;;;;;;5092917;28;20407;-75
2022/07/14 08:05:29;;;;;;;1.00;0.80;;;17.50;57.80;;;;;;5093974;28;20454;-69
2022/07/14 08:07:55;;;;;;;2.17;0.90;;;17.50;61.40;;;;;;5095154;28;20399;-70
2022/07/14 08:10:22;;;;;;;2.17;0.90;;;17.50;59.10;;;;;;5095121;28;20434;-70
2022/07/14 08:12:48;;;;;;;1.47;1.00;;;17.50;62.30;;;;;;5094378;28;20896;-76
2022/07/14 08:15:14;;;;;;;1.13;1.03;;;17.70;53.50;;;;;;5093653;28;20512;-75
2022/07/14 08:17:40;;;;;;;1.60;0.93;;;17.70;50.70;;;;;;5094984;28;20219;-76
2022/07/14 08:20:10;;;;;;;1.87;1.10;;;17.90;51.60;;;;;;5094996;28;20411;-75
2022/07/14 08:22:37;;;;;;;4.87;1.10;;;17.90;45.80;;;;;;5093525;28;20388;-75
2022/07/14 08:25:04;;;;;;;2.03;0.80;;;18.20;50.50;;;;;;5093288;28;20450;-76
2022/07/14 08:27:30;;;;;;;2.03;0.70;;;18.20;47.30;;;;;;5094985;28;20396;-70
2022/07/14 08:29:56;;;;;;;1.10;0.67;;;18.20;33.20;;;;;;5094674;28;20411;-71
2022/07/14 08:32:38;;;;;;;1.37;0.90;;;18.30;26.90;;;;;;5093794;28;20172;-70
2022/07/14 08:35:05;;;;;;;1.30;0.70;;;18.40;21.00;;;;;;5090530;28;20466;-69
2022/07/14 08:37:31;;;;;;;1.93;0.90;;;18.50;15.90;;;;;;5092994;28;20427;-75
2022/07/14 08:39:57;;;;;;;1.20;0.70;;;18.60;16.30;;;;;;5094392;28;20400;-75
2022/07/14 08:42:23;;;;;;;2.33;0.87;;;18.60;8.10;;;;;;5093022;28;20546;-70
2022/07/14 08:44:49;;;;;;;2.03;0.70;;;18.50;6.50;;;;;;5094530;28;20189;-75
2022/07/14 08:47:15;;;;;;;2.90;0.73;;;18.60;9.60;;;;;;5093183;28;20269;-76
2022/07/14 08:49:43;;;;;;;1.20;0.87;;;18.70;5.00;;;;;;5094457;28;20410;-77
2022/07/14 08:52:10;;;;;;;1.83;0.90;;;18.80;6.80;;;;;;5093894;28;20414;-73
2022/07/14 08:54:36;;;;;;;2.03;0.80;;;18.90;7.80;;;;;;5094114;28;20411;-75
2022/07/14 08:57:02;;;;;;;3.13;0.90;;;19.10;1.00;;;;;;5092669;28;20471;-71
2022/07/14 08:59:28;;;;;;;1.87;0.60;;;19.00;1.00;;;;;;5093907;28;20475;-76
2022/07/14 09:01:56;;;;;;;3.30;0.83;;;19.30;3.40;;;;;;5094214;28;20169;-75
2022/07/14 09:04:21;;;;;;;1.23;0.87;;;19.50;1.00;;;;;;5093261;28;20260;-75
2022/07/14 09:06:57;;;;;;;1.00;0.73;;;19.50;1.00;;;;;;5091161;28;21043;-75
2022/07/14 09:09:25;;;;;;;0.90;0.70;;;19.50;1.00;;;;;;5072394;28;20566;-70
2022/07/14 09:11:55;;;;;;;3.90;0.90;;;19.70;1.00;;;;;;5073122;28;20404;-70
2022/07/14 09:14:21;;;;;;;0.90;0.70;;;19.80;1.00;;;;;;5072770;28;20420;-70
2022/07/14 09:16:47;;;;;;;1.00;0.60;;;19.90;1.00;;;;;;5073504;28;20964;-75
2022/07/14 09:19:15;;;;;;;1.00;0.73;;;19.80;1.00;;;;;;5091746;28;20427;-75
2022/07/14 09:21:46;;;;;;;1.80;0.90;;;19.70;1.00;;;;;;5093725;28;20170;-70
2022/07/14 09:24:16;;;;;;;1.57;0.80;;;19.60;1.00;;;;;;5092837;28;20419;-76
2022/07/14 09:26:47;;;;;;;1.43;0.87;;;19.50;1.00;;;;;;5093796;28;20411;-69
2022/07/14 09:29:20;;;;;;;2.57;0.80;;;19.50;1.00;;;;;;5092326;28;20439;-69
2022/07/14 09:31:47;;;;;;;1.63;0.80;;;19.70;1.00;;;;;;5092352;28;20411;-75
2022/07/14 09:34:27;;;;;;;5.23;0.90;;;19.70;1.00;;;;;;5091405;28;20428;-71
2022/07/14 09:37:08;;;;;;;3.30;0.90;;;19.70;1.00;;;;;;5092943;28;20903;-70
2022/07/14 09:39:35;;;;;;;1.00;0.63;;;19.90;1.00;;;;;;5093539;28;20431;-76
2022/07/14 09:42:00;;;;;;;3.97;1.10;;;19.90;1.00;;;;;;5093391;28;20387;-73
2022/07/14 09:44:26;;;;;;;0.97;0.73;;;19.90;1.00;;;;;;5091214;28;20966;-71
2022/07/14 09:46:54;;;;;;;1.60;0.80;;;19.90;1.00;;;;;;5093493;28;20245;-72
2022/07/14 09:49:23;;;;;;;1.50;0.60;;;19.60;1.00;;;;;;5072363;28;20650;-70
2022/07/14 09:51:56;;;;;;;1.20;0.77;;;19.60;1.00;;;;;;5073172;28;20869;-75
2022/07/14 09:54:37;;;;;;;2.37;0.80;;;19.70;1.00;;;;;;5071658;28;20786;-71
2022/07/14 09:57:08;;;;;;;1.80;0.90;;;19.90;1.00;;;;;;5073064;28;20495;-69
2022/07/14 09:59:51;;;;;;;2.23;0.80;;;19.90;1.00;;;;;;5073125;28;20893;-74
2022/07/14 10:02:29;;;;;;;4.30;0.97;;;19.80;1.00;;;;;;5070823;28;20450;-74
2022/07/14 10:05:02;;;;;;;0.93;0.70;;;19.80;1.00;;;;;;5072914;28;20443;-75
2022/07/14 10:07:39;;;;;;;2.20;0.90;;;19.80;1.00;;;;;;5075111;28;20427;-75
2022/07/14 10:10:08;;;;;;;1.10;1.00;;;19.80;1.00;;;;;;5091823;28;20426;-70
2022/07/14 10:12:36;;;;;;;1.10;0.70;;;20.00;1.00;;;;;;5091994;28;20499;-75
2022/07/14 10:15:05;;;;;;;1.10;0.70;;;20.10;1.00;;;;;;5092507;28;20451;-75
2022/07/14 10:17:34;;;;;;;2.60;0.97;;;20.10;1.00;;;;;;5091946;28;20431;-75
2022/07/14 10:20:01;;;;;;;1.03;0.73;;;20.00;1.00;;;;;;5093126;28;20407;-72
2022/07/14 10:22:28;;;;;;;2.53;0.70;;;19.60;1.00;;;;;;5071695;28;20990;-76
2022/07/14 10:24:54;;;;;;;1.20;0.73;;;19.60;1.00;;;;;;5076764;28;20431;-75
2022/07/14 10:27:20;;;;;;;1.20;0.80;;;19.60;1.00;;;;;;5077303;28;20404;-75
2022/07/14 10:29:54;;;;;;;1.50;0.70;;;19.60;1.00;;;;;;5096823;28;20165;-70
2022/07/14 10:32:38;;;;;;;0.90;0.70;;;19.70;1.00;;;;;;5095841;28;20404;-75
2022/07/14 10:35:12;;;;;;;1.73;1.63;;;19.90;1.00;;;;;;5095511;28;20497;-70
2022/07/14 10:37:51;;;;;;;1.90;0.90;;;20.00;1.00;;;;;;5095816;28;20426;-70
2022/07/14 10:40:49;;;;;;;1.20;1.10;;;20.20;1.00;;;;;;5096884;28;20410;-71
2022/07/14 10:43:22;;;;;;;1.77;0.80;;;20.40;1.00;;;;;;5095868;28;20928;-70
2022/07/14 10:45:50;;;;;;;1.83;1.00;;;20.50;1.00;;;;;;5096856;28;20418;-76
2022/07/14 10:48:33;;;;;;;1.20;0.60;;;20.70;1.00;;;;;;5095589;28;20496;-74
2022/07/14 10:51:14;;;;;;;2.10;0.70;;;20.70;1.00;;;;;;5096048;28;20403;-70
2022/07/14 10:53:58;;;;;;;1.67;0.70;;;20.60;1.00;;;;;;5095763;28;20415;-70
2022/07/14 10:56:26;;;;;;;1.73;1.03;;;20.40;1.00;;;;;;5096555;28;20580;-70
2022/07/14 10:59:26;;;;;;;1.20;0.70;;;20.50;1.00;;;;;;5089911;28;20416;-71
2022/07/14 11:02:10;;;;;;;8.93;0.90;;;20.80;1.00;;;;;;5076015;28;20411;-74
2022/07/14 11:05:01;;;;;;;1.27;0.80;;;20.90;1.00;;;;;;5076138;28;20461;-75
2022/07/14 11:07:38;;;;;;;3.43;0.93;;;20.80;1.00;;;;;;5076208;28;20468;-74
2022/07/14 11:10:25;;;;;;;1.40;0.80;;;20.40;1.00;;;;;;5086426;28;20436;-71
2022/07/14 11:13:15;;;;;;;2.70;0.90;;;20.20;1.00;;;;;;5073878;28;20500;-71
2022/07/14 11:15:57;;;;;;;1.17;0.83;;;19.90;1.00;;;;;;5075906;28;20547;-75
2022/07/14 11:18:25;;;;;;;1.50;0.87;;;19.80;1.00;;;;;;5074677;28;20796;-70
2022/07/14 11:21:07;;;;;;;2.37;0.80;;;19.50;1.00;;;;;;5087826;28;20419;-75
2022/07/14 11:23:51;;;;;;;1.10;0.70;;;19.60;1.00;;;;;;5093884;28;20435;-75
2022/07/14 11:26:32;;;;;;;0.93;0.80;;;19.70;1.00;;;;;;5094089;28;20422;-70
2022/07/14 11:28:59;;;;;;;0.90;0.60;;;19.80;1.00;;;;;;5091802;28;20542;-69
2022/07/14 11:31:25;;;;;;;1.83;0.80;;;19.70;1.00;;;;;;5095920;28;20419;-70
2022/07/14 11:36:59;;;;;;;3.23;0.90;;;19.80;1.00;;;;;;5095826;28;20454;-70
2022/07/14 11:39:31;;;;;;;1.90;0.83;;;19.90;1.00;;;;;;5093316;28;20859;-75
2022/07/14 11:42:03;;;;;;;1.07;0.70;;;20.10;1.00;;;;;;5095597;28;20400;-70
2022/07/14 11:44:41;;;;;;;1.60;0.60;;;20.30;1.00;;;;;;5094444;28;20411;-76
2022/07/14 11:47:30;;;;;;;1.93;0.70;;;20.40;1.00;;;;;;5095686;28;20848;-76
2022/07/14 11:50:00;;;;;;;1.10;0.80;;;20.40;1.00;;;;;;5093867;28;20436;-70
2022/07/14 11:52:33;;;;;;;1.10;0.80;;;20.40;1.00;;;;;;5094665;28;20446;-76
2022/07/14 11:55:01;;;;;;;4.87;0.90;;;20.20;1.00;;;;;;5095358;28;20970;-70
2022/07/14 11:57:28;;;;;;;1.10;0.70;;;20.30;1.00;;;;;;5095559;28;20384;-76
2022/07/14 12:00:00;;;;;;;2.83;0.80;;;20.40;1.00;;;;;;5094256;28;20480;-70
2022/07/14 12:02:26;;;;;;;3.40;0.77;;;20.40;1.00;;;;;;5094418;28;20906;-73
2022/07/14 12:04:55;;;;;;;2.37;0.80;;;20.30;1.00;;;;;;5094810;28;20416;-75
2022/07/14 12:07:23;;;;;;;1.80;0.80;;;20.20;1.00;;;;;;5095425;28;20157;-76
2022/07/14 12:09:50;;;;;;;1.30;1.03;;;20.10;1.00;;;;;;5093789;28;20443;-76
2022/07/14 12:12:19;;;;;;;1.50;0.90;;;19.80;1.00;;;;;;5094319;28;20884;-74
2022/07/14 12:14:52;;;;;;;1.33;0.93;;;19.80;1.00;;;;;;5095138;28;20806;-69
2022/07/14 12:17:19;;;;;;;2.23;0.73;;;20.00;1.00;;;;;;5095111;28;20420;-70
2022/07/14 12:19:46;;;;;;;1.97;0.80;;;19.90;1.00;;;;;;5093690;28;20494;-70
2022/07/14 12:22:13;;;;;;;1.87;0.90;;;19.90;1.00;;;;;;5093777;28;20439;-74
2022/07/14 12:24:39;;;;;;;5.03;1.20;;;20.00;1.00;;;;;;5094590;28;20498;-70
2022/07/14 12:27:06;;;;;;;2.60;0.80;;;20.10;1.00;;;;;;5094883;28;20827;-76
2022/07/14 12:29:34;;;;;;;2.13;0.80;;;20.20;1.00;;;;;;5093670;28;20174;-70
2022/07/14 12:32:02;;;;;;;3.30;1.17;;;20.10;1.00;;;;;;5093286;28;20760;-74
2022/07/14 12:34:30;;;;;;;3.47;1.10;;;20.00;1.00;;;;;;5094042;28;20415;-70
2022/07/14 12:37:01;;;;;;;2.20;1.00;;;19.90;1.00;;;;;;5094680;28;20473;-75
2022/07/14 12:39:29;;;;;;;3.00;1.17;;;20.50;1.00;;;;;;5093573;28;20928;-76
2022/07/14 12:41:55;;;;;;;4.13;1.10;;;20.70;1.00;;;;;;5092911;28;20407;-74
2022/07/14 12:44:21;;;;;;;1.80;1.10;;;20.50;1.00;;;;;;5093126;28;20423;-69
2022/07/14 12:47:08;;;;;;;1.03;0.90;;;20.30;1.00;;;;;;5093838;28;20408;-70
2022/07/14 12:49:47;;;;;;;1.40;0.70;;;19.80;1.00;;;;;;5092829;28;20424;-71
2022/07/14 12:52:14;;;;;;;1.10;1.00;;;19.40;1.00;;;;;;5093474;28;20403;-75
2022/07/14 12:54:40;;;;;;;1.53;1.20;;;19.30;1.00;;;;;;5094262;28;20419;-70
2022/07/14 12:57:17;;;;;;;1.20;1.03;;;18.90;1.00;;;;;;5094396;28;20396;-75
2022/07/14 12:59:43;;;;;;;1.43;1.10;;;18.60;1.00;;;;;;5088657;28;20566;-75
2022/07/14 13:02:10;;;;;;;2.97;1.50;;;18.20;7.70;;;;;;5073375;28;20443;-73
2022/07/14 13:04:44;;;;;;;1.93;1.27;;;18.00;15.50;;;;;;5090570;28;20447;-69
2022/07/14 13:07:14;;;;;;;2.20;1.00;;;18.30;38.50;;;;;;5094112;28;20445;-70